Time;durP1;ratioP1;P1;durP2;ratioP2;P2;SDS_P1;SDS_P2;PMS_P1;PMS_P2;Temp;Humidity;BMP_temperature;BMP_pressure;BME280_temperature;BME280_humidity;BME280_pressure;Samples;Min_cycle;Max_cycle;Signal;HPM_P1;HPM_P2
2022/05/09 00:00:27;;;;;;;7.60;7.07;;;;;;;12.92;96.44;97163.47;5054931;28;20563;-52
2022/05/09 00:02:54;;;;;;;8.07;7.47;;;;;;;12.84;96.52;97160.72;5072453;28;20685;-51
2022/05/09 00:05:24;;;;;;;7.67;7.17;;;;;;;12.74;97.55;97165.22;5056295;28;20199;-51
2022/05/09 00:07:52;;;;;;;7.80;7.20;;;;;;;12.65;99.04;97163.41;5062048;28;20205;-51
2022/05/09 00:10:21;;;;;;;8.20;7.27;;;;;;;12.66;98.01;97157.13;5054420;28;20207;-50
2022/05/09 00:12:50;;;;;;;8.27;7.57;;;;;;;12.57;99.78;97154.50;5076754;28;20195;-51
2022/05/09 00:15:17;;;;;;;8.03;7.33;;;;;;;12.56;99.75;97153.66;5065029;28;20226;-50
2022/05/09 00:17:45;;;;;;;8.07;7.37;;;;;;;12.52;99.94;97154.91;5075605;28;20207;-51
2022/05/09 00:20:12;;;;;;;8.60;7.80;;;;;;;12.45;100.00;97152.00;5073342;28;20645;-51
2022/05/09 00:22:50;;;;;;;8.20;7.50;;;;;;;12.46;100.00;97150.19;5055336;28;20243;-50
2022/05/09 00:25:19;;;;;;;7.70;7.10;;;;;;;12.36;100.00;97152.84;5057449;28;20191;-52
2022/05/09 00:27:46;;;;;;;8.80;8.10;;;;;;;12.36;100.00;97152.03;5066383;28;20206;-51
2022/05/09 00:30:14;;;;;;;8.43;7.83;;;;;;;12.35;100.00;97153.84;5075161;28;20618;-52
2022/05/09 00:32:42;;;;;;;8.50;7.90;;;;;;;12.33;100.00;97152.28;5069187;28;20212;-51
2022/05/09 00:35:10;;;;;;;8.90;8.20;;;;;;;12.26;100.00;97151.16;5057644;28;20206;-51
2022/05/09 00:37:39;;;;;;;9.27;8.47;;;;;;;12.25;100.00;97147.72;5075453;28;20238;-50
2022/05/09 00:40:10;;;;;;;8.93;8.13;;;;;;;12.28;100.00;97149.22;5073860;28;20221;-51
2022/05/09 00:42:40;;;;;;;8.90;8.20;;;;;;;12.28;100.00;97146.56;5075152;28;20272;-53
2022/05/09 00:45:08;;;;;;;8.77;8.17;;;;;;;12.35;100.00;97145.03;5061723;28;20576;-51
2022/05/09 00:47:35;;;;;;;8.63;7.93;;;;;;;12.40;100.00;97142.78;5074949;28;20207;-51
2022/05/09 00:50:04;;;;;;;9.20;8.50;;;;;;;12.36;100.00;97141.41;5068737;28;20214;-51
2022/05/09 00:52:36;;;;;;;9.73;8.97;;;;;;;12.53;100.00;97145.97;5051182;28;20207;-51
2022/05/09 00:55:06;;;;;;;9.17;8.47;;;;;;;12.52;100.00;97146.94;5062446;28;20231;-50
2022/05/09 00:57:36;;;;;;;8.97;8.27;;;;;;;12.48;100.00;97146.41;5074241;28;20215;-51
2022/05/09 01:00:08;;;;;;;8.53;7.83;;;;;;;12.46;100.00;97151.03;5074710;28;20225;-50
2022/05/09 01:02:35;;;;;;;8.73;8.10;;;;;;;12.50;100.00;97154.22;5061677;28;20225;-51
2022/05/09 01:05:03;;;;;;;9.03;8.33;;;;;;;12.56;100.00;97160.78;5055589;28;20412;-51
2022/05/09 01:07:31;;;;;;;9.20;8.30;;;;;;;12.55;100.00;97151.13;5073130;28;20213;-51
2022/05/09 01:10:00;;;;;;;9.23;7.90;;;;;;;12.58;100.00;97154.34;5075110;28;20214;-51
2022/05/09 01:12:31;;;;;;;8.10;7.57;;;;;;;12.64;100.00;97156.44;5062422;28;20206;-51
2022/05/09 01:14:59;;;;;;;9.00;7.90;;;;;;;12.67;100.00;97156.16;5055114;28;20213;-51
2022/05/09 01:17:27;;;;;;;9.10;8.30;;;;;;;12.69;100.00;97164.78;5074517;28;20214;-51
2022/05/09 01:19:56;;;;;;;8.93;8.23;;;;;;;12.75;100.00;97158.09;5073822;28;20212;-52
2022/05/09 01:22:26;;;;;;;9.50;8.70;;;;;;;12.79;100.00;97156.78;5048293;28;20252;-51
2022/05/09 01:24:54;;;;;;;9.47;8.77;;;;;;;12.86;100.00;97163.19;5074625;28;20225;-51
2022/05/09 01:27:20;;;;;;;9.17;8.53;;;;;;;12.90;100.00;97162.78;5074953;28;20207;-52
2022/05/09 01:29:54;;;;;;;8.87;8.23;;;;;;;12.95;100.00;97160.53;5074405;28;20218;-51
2022/05/09 01:32:26;;;;;;;8.97;8.37;;;;;;;12.96;100.00;97162.22;5061943;28;20192;-51
2022/05/09 01:34:55;;;;;;;9.17;8.47;;;;;;;13.02;100.00;97170.56;5052285;28;20709;-51
2022/05/09 01:37:24;;;;;;;8.80;8.20;;;;;;;13.06;100.00;97167.47;5062581;28;20661;-50
2022/05/09 01:39:50;;;;;;;9.50;8.60;;;;;;;13.11;100.00;97164.44;5057794;28;20217;-52
2022/05/09 01:42:17;;;;;;;9.13;8.43;;;;;;;13.15;100.00;97161.31;5074600;28;20249;-50
2022/05/09 01:44:44;;;;;;;9.60;8.80;;;;;;;13.18;100.00;97165.53;5074550;28;20601;-51
2022/05/09 01:49:57;;;;;;;9.87;9.03;;;;;;;13.26;100.00;97165.59;5074375;28;20552;-51
2022/05/09 01:52:26;;;;;;;10.73;9.83;;;;;;;13.28;100.00;97171.63;5074720;28;20280;-51
2022/05/09 01:54:53;;;;;;;10.27;9.47;;;;;;;13.30;100.00;97180.25;5048698;28;20214;-51
2022/05/09 01:57:19;;;;;;;10.17;9.17;;;;;;;13.31;100.00;97176.63;5074809;28;20214;-51
2022/05/09 01:59:47;;;;;;;10.43;9.63;;;;;;;13.30;100.00;97159.84;5075143;28;20233;-51
2022/05/09 02:02:17;;;;;;;10.27;9.47;;;;;;;13.33;100.00;97166.69;5069522;28;20203;-52
2022/05/09 02:04:46;;;;;;;9.53;8.83;;;;;;;13.35;100.00;97165.56;5055691;28;20199;-52
2022/05/09 02:07:15;;;;;;;10.40;9.60;;;;;;;13.36;100.00;97161.91;5069827;28;20206;-51
2022/05/09 02:09:48;;;;;;;10.13;9.37;;;;;;;13.36;100.00;97169.03;5077803;28;20206;-50
2022/05/09 02:12:15;;;;;;;9.57;8.77;;;;;;;13.40;100.00;97168.59;5070890;28;20210;-50
2022/05/09 02:14:43;;;;;;;9.20;8.47;;;;;;;13.40;100.00;97165.13;5077863;28;20217;-51
2022/05/09 02:17:13;;;;;;;10.17;9.33;;;;;;;13.40;100.00;97165.13;5078040;28;20573;-50
2022/05/09 02:19:40;;;;;;;10.27;9.23;;;;;;;13.40;99.36;97170.44;5078510;28;20206;-50
2022/05/09 02:22:08;;;;;;;10.03;9.23;;;;;;;13.42;99.64;97163.16;5077565;28;20230;-52
2022/05/09 02:24:35;;;;;;;10.17;9.27;;;;;;;13.41;99.86;97166.78;5076920;28;20209;-51
2022/05/09 02:27:07;;;;;;;10.07;9.27;;;;;;;13.42;99.72;97166.66;5072984;28;20207;-51
2022/05/09 02:29:34;;;;;;;9.87;9.07;;;;;;;13.45;99.65;97173.50;5057799;28;20211;-52
2022/05/09 02:32:03;;;;;;;10.13;9.33;;;;;;;13.49;99.19;97171.38;5065708;28;20215;-50
2022/05/09 02:34:31;;;;;;;10.30;9.50;;;;;;;13.50;98.51;97165.09;5046958;28;20616;-51
2022/05/09 02:37:00;;;;;;;11.07;9.97;;;;;;;13.55;95.64;97170.78;5064446;28;20206;-51
2022/05/09 02:39:27;;;;;;;9.97;9.20;;;;;;;13.55;96.20;97168.94;5058176;28;20294;-52
2022/05/09 02:41:53;;;;;;;9.27;8.57;;;;;;;13.55;96.36;97174.28;5077803;28;20414;-51
2022/05/09 02:44:23;;;;;;;9.60;8.80;;;;;;;13.57;96.64;97171.47;5077369;28;20266;-51
2022/05/09 02:46:49;;;;;;;10.53;9.43;;;;;;;13.60;95.13;97174.69;5077510;28;20210;-51
2022/05/09 02:49:16;;;;;;;9.80;9.00;;;;;;;13.58;95.23;97173.97;5076034;28;20217;-51
2022/05/09 02:51:43;;;;;;;9.97;9.17;;;;;;;13.61;95.35;97170.16;5066648;28;20208;-51
2022/05/09 02:54:10;;;;;;;11.20;10.30;;;;;;;13.60;94.99;97179.16;5054195;28;20203;-51
2022/05/09 02:56:37;;;;;;;9.50;8.73;;;;;;;13.60;95.17;97182.66;5077434;28;20210;-51
2022/05/09 02:59:03;;;;;;;9.63;8.93;;;;;;;13.61;96.30;97178.13;5077375;28;20202;-51
2022/05/09 03:01:31;;;;;;;9.77;9.00;;;;;;;13.62;96.35;97178.00;5062927;28;20238;-51
2022/05/09 03:06:43;;;;;;;10.10;9.30;;;;;;;13.61;95.50;97181.63;5057270;28;20264;-51
2022/05/09 03:09:10;;;;;;;10.53;9.63;;;;;;;13.62;96.60;97185.97;5061736;28;20206;-51
2022/05/09 03:11:36;;;;;;;10.23;9.43;;;;;;;13.64;95.97;97189.31;5069771;28;20217;-51
2022/05/09 03:14:03;;;;;;;10.03;9.17;;;;;;;13.63;96.79;97185.00;5060151;28;20212;-51
2022/05/09 03:16:32;;;;;;;9.93;9.10;;;;;;;13.65;96.70;97185.69;5079853;28;20217;-52
2022/05/09 03:18:59;;;;;;;9.33;8.63;;;;;;;13.67;96.03;97181.06;5080835;28;20195;-52
2022/05/09 03:21:26;;;;;;;9.07;8.37;;;;;;;13.68;96.35;97182.72;5079634;28;20223;-51
2022/05/09 03:23:52;;;;;;;9.83;8.93;;;;;;;13.67;96.51;97182.88;5087840;28;20226;-51
2022/05/09 03:26:19;;;;;;;10.93;10.03;;;;;;;13.67;96.07;97180.22;5079216;28;20211;-52
2022/05/09 03:28:45;;;;;;;10.07;9.10;;;;;;;13.66;95.85;97181.19;5069754;28;20245;-51
2022/05/09 03:31:13;;;;;;;10.13;9.33;;;;;;;13.63;96.67;97182.34;5071738;28;20208;-51
2022/05/09 03:33:42;;;;;;;10.60;9.80;;;;;;;13.62;96.95;97175.34;5062502;28;20262;-51
2022/05/09 03:36:08;;;;;;;10.30;9.50;;;;;;;13.59;98.00;97183.63;5064991;28;20222;-51
2022/05/09 03:38:35;;;;;;;10.00;9.20;;;;;;;13.58;97.63;97176.63;5076921;28;20233;-51
2022/05/09 03:41:02;;;;;;;9.83;8.93;;;;;;;13.60;97.35;97177.34;5063125;28;20207;-50
2022/05/09 03:43:28;;;;;;;9.50;8.80;;;;;;;13.65;96.80;97179.53;5082040;28;20237;-52
2022/05/09 03:45:55;;;;;;;10.00;9.10;;;;;;;13.63;97.18;97182.34;5083261;28;20236;-52
2022/05/09 03:48:22;;;;;;;10.13;9.33;;;;;;;13.63;96.42;97178.84;5062971;28;20527;-52
2022/05/09 03:50:50;;;;;;;9.43;8.70;;;;;;;13.67;95.66;97178.41;5062828;28;20640;-52
2022/05/09 03:53:17;;;;;;;10.20;9.37;;;;;;;13.67;95.79;97182.88;5065715;28;20203;-51
2022/05/09 03:55:43;;;;;;;9.33;8.63;;;;;;;13.65;96.36;97175.03;5074487;28;20303;-51
2022/05/09 03:58:11;;;;;;;10.20;9.40;;;;;;;13.66;96.00;97182.03;5076924;28;20207;-51
2022/05/09 04:00:37;;;;;;;9.77;8.97;;;;;;;13.66;95.85;97184.69;5069176;28;20206;-51
2022/05/09 04:03:05;;;;;;;9.03;8.33;;;;;;;13.66;95.83;97186.50;5068231;28;20219;-50
2022/05/09 04:05:35;;;;;;;9.57;8.87;;;;;;;13.69;95.21;97186.22;5068528;28;20199;-50
2022/05/09 04:08:07;;;;;;;9.20;8.50;;;;;;;13.65;96.32;97191.00;5081836;28;20233;-51
2022/05/09 04:10:35;;;;;;;10.17;9.40;;;;;;;13.65;96.41;97190.16;5079943;28;20210;-51
2022/05/09 04:13:02;;;;;;;10.37;9.57;;;;;;;13.67;95.57;97199.66;5071830;28;20198;-51
2022/05/09 04:18:17;;;;;;;10.50;9.70;;;;;;;13.65;96.08;97193.66;5070189;28;20193;-51
2022/05/09 04:20:44;;;;;;;9.67;8.97;;;;;;;13.69;95.47;97195.03;5053065;28;20219;-51
2022/05/09 04:23:12;;;;;;;10.60;9.70;;;;;;;13.68;96.00;97205.78;5073152;28;20218;-52
2022/05/09 04:25:38;;;;;;;9.00;8.33;;;;;;;13.71;95.76;97200.22;5078889;28;20202;-50
2022/05/09 04:28:07;;;;;;;9.60;8.90;;;;;;;13.71;96.05;97195.69;5074446;28;20756;-51
2022/05/09 04:30:35;;;;;;;10.50;9.50;;;;;;;13.72;95.63;97205.34;5075567;28;20218;-51
2022/05/09 04:33:02;;;;;;;9.83;9.13;;;;;;;13.70;96.72;97207.34;5074246;28;20206;-51
2022/05/09 04:35:29;;;;;;;10.27;9.50;;;;;;;13.70;97.23;97210.00;5076455;28;20206;-51
2022/05/09 04:37:56;;;;;;;9.77;9.00;;;;;;;13.73;96.46;97204.38;5078650;28;20206;-49
2022/05/09 04:40:27;;;;;;;10.20;9.20;;;;;;;13.79;94.97;97214.41;5066726;28;20210;-51
2022/05/09 04:42:56;;;;;;;9.73;9.03;;;;;;;13.75;96.11;97213.03;5059486;28;20203;-50
2022/05/09 04:45:23;;;;;;;10.03;9.27;;;;;;;13.75;96.55;97221.00;5073067;28;20237;-51
2022/05/09 04:47:50;;;;;;;9.90;9.20;;;;;;;13.73;97.39;97217.69;5079413;28;20538;-51
2022/05/09 04:50:21;;;;;;;10.10;9.30;;;;;;;13.77;96.96;97226.19;5056584;28;20202;-51
2022/05/09 04:52:47;;;;;;;10.97;10.00;;;;;;;13.79;95.24;97230.38;5075301;28;20210;-51
2022/05/09 04:55:15;;;;;;;9.93;9.13;;;;;;;13.82;95.21;97229.22;5075918;28;20217;-51
2022/05/09 04:57:46;;;;;;;10.70;9.80;;;;;;;13.83;94.92;97231.75;5075632;28;20260;-50
2022/05/09 05:00:15;;;;;;;10.57;9.37;;;;;;;13.83;94.98;97234.41;5064063;28;20206;-50
2022/05/09 05:02:44;;;;;;;11.30;10.13;;;;;;;13.84;95.27;97244.06;5054898;28;20221;-51
2022/05/09 05:05:12;;;;;;;11.10;10.20;;;;;;;13.84;95.38;97237.91;5055451;28;20558;-51
2022/05/09 05:07:39;;;;;;;10.83;9.93;;;;;;;13.85;95.29;97240.41;5074493;28;20619;-51
2022/05/09 05:10:07;;;;;;;10.90;10.00;;;;;;;13.85;94.82;97243.06;5075107;28;20210;-52
2022/05/09 05:12:33;;;;;;;10.63;9.83;;;;;;;13.87;94.92;97249.06;5067176;28;20202;-50
2022/05/09 05:15:01;;;;;;;10.70;9.80;;;;;;;13.90;94.20;97246.13;5075363;28;20512;-50
2022/05/09 05:17:28;;;;;;;11.53;10.57;;;;;;;13.91;93.88;97250.47;5074034;28;20198;-50
2022/05/09 05:19:55;;;;;;;10.67;9.77;;;;;;;13.91;93.28;97247.81;5075140;28;20217;-52
2022/05/09 05:22:21;;;;;;;10.17;9.37;;;;;;;13.98;93.43;97249.84;5074696;28;20241;-51
2022/05/09 05:24:52;;;;;;;10.83;9.93;;;;;;;14.01;92.46;97253.03;5074940;28;20625;-52
2022/05/09 05:27:21;;;;;;;11.30;10.30;;;;;;;13.98;93.79;97250.69;5055194;28;20522;-50
2022/05/09 05:29:49;;;;;;;10.47;9.53;;;;;;;14.00;94.02;97247.88;5060731;28;20223;-50
2022/05/09 05:32:19;;;;;;;10.70;9.90;;;;;;;13.99;93.26;97252.38;5048723;28;20214;-50
2022/05/09 05:34:48;;;;;;;10.53;9.57;;;;;;;13.99;93.13;97254.19;5074624;28;20630;-51
2022/05/09 05:37:17;;;;;;;9.97;9.13;;;;;;;14.04;93.08;97255.41;5075056;28;20770;-52
2022/05/09 05:39:44;;;;;;;11.00;10.07;;;;;;;14.04;92.53;97259.88;5096296;28;20212;-50
2022/05/09 05:42:12;;;;;;;11.03;10.00;;;;;;;14.02;91.93;97257.38;5077706;28;20194;-50
2022/05/09 05:44:38;;;;;;;11.77;10.67;;;;;;;14.07;91.76;97265.75;5093526;28;20237;-51
2022/05/09 05:47:07;;;;;;;11.60;10.57;;;;;;;14.13;90.24;97275.81;5079459;28;20245;-52
2022/05/09 05:49:38;;;;;;;11.90;10.67;;;;;;;14.13;90.02;97269.63;5069063;28;20696;-51
2022/05/09 05:52:08;;;;;;;11.83;10.67;;;;;;;14.10;90.22;97275.25;5066299;28;20261;-51
2022/05/09 05:54:36;;;;;;;11.33;10.27;;;;;;;14.04;90.26;97282.00;5074909;28;20824;-51
2022/05/09 05:57:06;;;;;;;11.63;10.73;;;;;;;14.08;90.69;97274.56;5075994;28;20202;-52
2022/05/09 05:59:33;;;;;;;12.40;11.30;;;;;;;14.17;90.20;97276.34;5058595;28;20226;-52
2022/05/09 06:02:00;;;;;;;12.43;11.43;;;;;;;14.16;90.20;97279.97;5061006;28;20206;-51
2022/05/09 06:04:27;;;;;;;12.17;11.07;;;;;;;14.17;89.42;97279.00;5071686;28;20211;-50
2022/05/09 06:06:55;;;;;;;10.57;9.57;;;;;;;14.19;90.33;97279.66;5075145;28;20221;-54
2022/05/09 06:09:21;;;;;;;12.73;11.53;;;;;;;14.21;90.44;97277.69;5067318;28;20211;-50
2022/05/09 06:11:48;;;;;;;12.10;10.50;;;;;;;14.27;90.20;97279.78;5057692;28;20647;-52
2022/05/09 06:14:16;;;;;;;11.67;10.67;;;;;;;14.36;89.28;97282.38;5054817;28;20501;-51
2022/05/09 06:16:45;;;;;;;12.60;11.33;;;;;;;14.37;88.31;97283.22;5056119;28;20214;-51
2022/05/09 06:19:11;;;;;;;11.50;10.43;;;;;;;14.49;89.34;97281.19;5065520;28;20202;-52
2022/05/09 06:21:39;;;;;;;12.57;11.57;;;;;;;14.63;88.92;97283.31;5076388;28;20234;-51
2022/05/09 06:24:08;;;;;;;11.90;10.90;;;;;;;14.82;88.28;97289.31;5052072;28;20242;-51
2022/05/09 06:26:35;;;;;;;12.70;11.50;;;;;;;14.99;88.18;97287.59;5072733;28;20221;-50
2022/05/09 06:29:06;;;;;;;12.27;11.23;;;;;;;15.07;87.19;97285.00;5077932;28;20288;-51
2022/05/09 06:31:34;;;;;;;12.67;11.57;;;;;;;15.12;84.81;97289.88;5077981;28;20284;-51
2022/05/09 06:34:01;;;;;;;12.90;11.73;;;;;;;15.22;84.56;97286.13;5077987;28;20214;-51
2022/05/09 06:36:27;;;;;;;12.53;11.20;;;;;;;15.27;83.62;97288.31;5077472;28;20210;-51
2022/05/09 06:38:57;;;;;;;12.00;11.03;;;;;;;15.48;83.53;97293.28;5077288;28;20221;-50
2022/05/09 06:41:26;;;;;;;12.67;10.97;;;;;;;15.65;82.79;97293.25;5074459;28;20202;-50
2022/05/09 06:43:52;;;;;;;11.53;10.43;;;;;;;16.07;83.75;97293.28;5047461;28;20231;-51
2022/05/09 06:46:19;;;;;;;12.17;11.07;;;;;;;16.44;80.00;97292.88;5055899;28;20207;-50
2022/05/09 06:48:45;;;;;;;13.40;12.25;;;;;;;16.61;78.72;97285.78;5067460;28;20218;-51
2022/05/09 06:51:12;;;;;;;11.43;10.43;;;;;;;17.17;77.26;97292.97;5056123;28;20222;-51
2022/05/09 06:53:39;;;;;;;12.20;11.15;;;;;;;17.85;76.31;97296.03;5044698;28;20200;-51
2022/05/09 06:56:05;;;;;;;11.82;10.82;;;;;;;18.42;73.84;97293.97;5057662;28;20206;-51
2022/05/09 06:58:34;;;;;;;11.95;10.93;;;;;;;18.42;70.23;97299.31;5077276;28;20217;-51
2022/05/09 07:01:00;;;;;;;12.95;11.85;;;;;;;18.20;68.84;97300.09;5071517;28;20213;-52
2022/05/09 07:03:30;;;;;;;11.32;10.35;;;;;;;18.51;70.08;97292.91;5053450;28;20533;-50
2022/05/09 07:05:57;;;;;;;11.85;10.90;;;;;;;18.08;71.62;97290.75;5060339;28;20222;-51
2022/05/09 07:08:25;;;;;;;11.43;10.52;;;;;;;17.90;70.05;97293.66;5056979;28;20218;-50
2022/05/09 07:10:52;;;;;;;11.68;10.75;;;;;;;17.93;71.89;97293.31;5075724;28;20210;-51
2022/05/09 07:13:18;;;;;;;11.77;10.88;;;;;;;17.87;71.90;97292.19;5069646;28;20234;-51
2022/05/09 07:15:46;;;;;;;11.68;10.77;;;;;;;18.06;72.13;97293.63;5077006;28;20213;-52
2022/05/09 07:18:13;;;;;;;11.45;10.45;;;;;;;17.83;71.82;97290.84;5077450;28;20218;-51
2022/05/09 07:20:40;;;;;;;12.10;11.02;;;;;;;17.80;71.99;97296.56;5067983;28;20207;-51
2022/05/09 07:23:09;;;;;;;11.65;10.65;;;;;;;17.91;74.42;97295.34;5051103;28;20235;-52
2022/05/09 07:25:38;;;;;;;11.77;10.77;;;;;;;17.72;72.25;97288.53;5060578;28;20261;-52
2022/05/09 07:28:06;;;;;;;11.38;10.40;;;;;;;17.80;72.13;97296.56;5056529;28;20268;-51
2022/05/09 07:30:34;;;;;;;11.40;10.50;;;;;;;17.61;72.35;97296.94;5050383;28;20293;-52
2022/05/09 07:33:02;;;;;;;11.55;10.55;;;;;;;17.80;72.53;97290.38;5077528;28;20649;-51
2022/05/09 07:35:29;;;;;;;12.38;11.35;;;;;;;17.71;73.04;97299.44;5078117;28;20634;-51
2022/05/09 07:37:56;;;;;;;11.82;10.80;;;;;;;17.73;73.76;97295.56;5075842;28;20297;-50
2022/05/09 07:40:25;;;;;;;11.85;10.77;;;;;;;17.69;74.44;97293.41;5052894;28;20533;-51
2022/05/09 07:42:52;;;;;;;12.23;11.00;;;;;;;17.61;73.20;97298.75;5055865;28;20203;-51
2022/05/09 07:45:21;;;;;;;11.88;10.88;;;;;;;17.54;73.10;97298.59;5076643;28;20226;-51
2022/05/09 07:47:50;;;;;;;11.57;10.65;;;;;;;17.73;75.17;97298.25;5076431;28;20707;-51
2022/05/09 07:50:18;;;;;;;11.73;10.65;;;;;;;17.81;73.47;97308.94;5065725;28;20212;-51
2022/05/09 07:52:45;;;;;;;11.95;10.73;;;;;;;17.81;72.74;97306.25;5054018;28;20203;-50
2022/05/09 07:55:13;;;;;;;11.88;10.68;;;;;;;17.90;72.87;97302.53;5047130;28;20217;-51
2022/05/09 07:57:39;;;;;;;10.90;10.00;;;;;;;18.18;72.71;97294.06;5069392;28;20202;-51
2022/05/09 08:00:10;;;;;;;12.00;10.75;;;;;;;17.84;72.08;97297.88;5062168;28;20259;-52
2022/05/09 08:02:39;;;;;;;11.73;10.63;;;;;;;17.94;72.01;97302.19;5078682;28;20187;-55
2022/05/09 08:05:06;;;;;;;12.02;10.98;;;;;;;18.06;72.43;97300.81;5059086;28;20234;-51
2022/05/09 08:07:34;;;;;;;10.70;9.73;;;;;;;18.39;71.18;97302.31;5083743;28;20206;-52
2022/05/09 08:10:01;;;;;;;9.38;8.57;;;;;;;18.83;70.53;97306.09;5076316;28;20210;-51
2022/05/09 08:12:27;;;;;;;10.55;9.75;;;;;;;18.84;69.18;97302.41;5068432;28;20226;-51
2022/05/09 08:14:56;;;;;;;10.93;10.02;;;;;;;18.71;68.82;97304.84;5074485;28;20213;-51
2022/05/09 08:17:23;;;;;;;10.95;10.05;;;;;;;18.81;68.80;97308.09;5069601;28;20211;-51
2022/05/09 08:19:54;;;;;;;10.90;9.77;;;;;;;19.13;69.96;97300.88;5064640;28;20211;-51
2022/05/09 08:22:20;;;;;;;11.55;10.57;;;;;;;19.27;70.39;97295.50;5073793;28;20339;-51
2022/05/09 08:24:50;;;;;;;10.85;9.95;;;;;;;19.43;67.65;97296.41;5074522;28;20237;-50
2022/05/09 08:27:17;;;;;;;11.02;9.93;;;;;;;20.13;66.98;97308.41;5074697;28;20206;-51
2022/05/09 08:29:43;;;;;;;10.75;9.77;;;;;;;20.44;63.61;97308.19;5072814;28;20596;-52
2022/05/09 08:32:12;;;;;;;10.80;9.90;;;;;;;20.86;63.24;97315.50;5054366;28;20207;-52
2022/05/09 08:34:41;;;;;;;10.68;9.68;;;;;;;20.91;61.55;97309.53;5067329;28;20206;-51
2022/05/09 08:37:08;;;;;;;10.88;9.98;;;;;;;20.99;61.36;97317.50;5074406;28;20206;-52
2022/05/09 08:39:34;;;;;;;9.63;8.93;;;;;;;20.47;62.70;97312.38;5057811;28;20597;-52
2022/05/09 08:42:05;;;;;;;11.25;10.13;;;;;;;20.50;63.40;97310.16;5074172;28;20210;-51
2022/05/09 08:44:58;;;;;;;9.68;8.88;;;;;;;20.23;64.14;97316.16;5074652;28;20271;-52
2022/05/09 08:47:44;;;;;;;10.48;9.50;;;;;;;20.22;64.97;97311.81;5057923;28;20198;-51
2022/05/09 08:50:21;;;;;;;10.70;9.52;;;;;;;20.05;66.40;97311.16;5054928;28;20217;-51
2022/05/09 08:52:53;;;;;;;10.90;9.50;;;;;;;20.02;63.93;97310.72;5050485;28;20225;-52
2022/05/09 08:55:24;;;;;;;9.52;8.73;;;;;;;20.99;63.60;97307.56;5054360;28;20534;-51
2022/05/09 08:57:56;;;;;;;9.45;8.65;;;;;;;21.14;61.11;97315.59;5054189;28;20199;-52
2022/05/09 09:00:29;;;;;;;9.27;8.65;;;;;;;21.00;61.15;97309.25;5066551;28;20217;-51
2022/05/09 09:03:03;;;;;;;9.00;8.30;;;;;;;20.96;61.54;97305.28;5054311;28;20207;-52
2022/05/09 09:05:35;;;;;;;8.45;7.65;;;;;;;21.31;63.88;97308.94;5047582;28;20674;-51
2022/05/09 09:08:10;;;;;;;8.43;7.82;;;;;;;22.00;61.89;97304.47;5063898;28;20206;-50
2022/05/09 09:10:40;;;;;;;8.45;7.63;;;;;;;22.23;59.79;97314.97;5075201;28;20239;-51
2022/05/09 09:13:22;;;;;;;8.60;7.90;;;;;;;22.98;57.10;97305.94;5067724;28;20240;-52
2022/05/09 09:15:54;;;;;;;7.57;7.07;;;;;;;22.94;55.52;97308.22;5074805;28;20656;-52
2022/05/09 09:18:32;;;;;;;8.20;7.60;;;;;;;22.91;56.93;97305.09;5074294;28;20674;-50
2022/05/09 09:21:02;;;;;;;8.25;7.53;;;;;;;22.32;55.02;97316.47;5074507;28;20630;-51
2022/05/09 09:23:47;;;;;;;7.95;7.35;;;;;;;21.61;57.03;97313.09;5054633;28;20199;-51
2022/05/09 09:26:22;;;;;;;7.97;7.38;;;;;;;21.37;59.39;97321.59;5049658;28;20238;-51
2022/05/09 09:28:54;;;;;;;7.90;7.25;;;;;;;21.02;60.01;97322.47;5054186;28;20622;-54
2022/05/09 09:31:25;;;;;;;7.07;6.47;;;;;;;20.74;59.84;97320.53;5062232;28;20278;-50
2022/05/09 09:33:55;;;;;;;7.65;7.07;;;;;;;20.72;57.95;97321.78;5081659;28;20206;-51
2022/05/09 09:36:23;;;;;;;7.35;6.85;;;;;;;21.28;56.50;97317.38;5083991;28;20203;-51
2022/05/09 09:38:55;;;;;;;7.22;6.53;;;;;;;21.14;60.22;97321.00;5070447;28;20249;-50
2022/05/09 09:41:25;;;;;;;6.88;6.38;;;;;;;20.88;61.68;97323.38;5072604;28;20211;-51
2022/05/09 09:44:01;;;;;;;8.15;7.00;;;;;;;20.61;58.97;97317.72;5087184;28;20202;-49
2022/05/09 09:46:28;;;;;;;7.50;7.00;;;;;;;20.75;58.61;97321.38;5074678;28;20214;-51
2022/05/09 09:49:03;;;;;;;7.43;6.82;;;;;;;20.79;60.16;97322.66;5074499;28;20217;-50
2022/05/09 09:51:30;;;;;;;7.95;7.28;;;;;;;21.26;58.43;97322.13;5041648;28;20218;-51
2022/05/09 09:54:02;;;;;;;7.63;6.90;;;;;;;21.28;58.63;97323.63;5054473;28;20226;-50
2022/05/09 09:56:34;;;;;;;10.70;6.85;;;;;;;22.00;56.13;97322.53;5053250;28;20207;-51
2022/05/09 09:59:18;;;;;;;7.20;6.70;;;;;;;22.42;53.22;97322.34;5068326;28;20234;-51
2022/05/09 10:02:03;;;;;;;7.07;6.57;;;;;;;22.54;54.16;97315.31;5044991;28;20203;-50
2022/05/09 10:04:30;;;;;;;7.22;6.63;;;;;;;22.18;55.06;97310.19;5050112;28;20585;-50
2022/05/09 10:07:00;;;;;;;7.10;6.50;;;;;;;21.73;55.40;97314.22;5067547;28;20210;-52
2022/05/09 10:09:27;;;;;;;7.15;6.55;;;;;;;21.41;55.88;97317.50;5048510;28;20206;-53
2022/05/09 10:11:57;;;;;;;7.13;6.53;;;;;;;21.25;54.99;97315.94;5073179;28;20228;-51
2022/05/09 10:14:36;;;;;;;6.45;6.05;;;;;;;20.86;58.32;97315.50;5062196;28;20202;-53
2022/05/09 10:17:18;;;;;;;7.65;7.03;;;;;;;20.63;58.67;97312.97;5073942;28;20206;-51
2022/05/09 10:19:45;;;;;;;6.85;6.43;;;;;;;20.75;60.81;97310.63;5087429;28;20202;-51
2022/05/09 10:24:57;;;;;;;6.97;6.47;;;;;;;21.16;58.19;97305.47;5055856;28;20246;-53
2022/05/09 10:27:29;;;;;;;7.63;7.13;;;;;;;20.88;57.16;97307.22;5051151;28;20214;-49
2022/05/09 10:29:59;;;;;;;6.00;5.47;;;;;;;20.89;58.84;97308.91;5051389;28;20200;-52
2022/05/09 10:32:30;;;;;;;6.15;5.75;;;;;;;20.99;59.70;97309.41;5057937;28;20631;-51
2022/05/09 10:35:03;;;;;;;6.80;6.20;;;;;;;21.03;56.85;97300.78;5056962;28;20203;-51
2022/05/09 10:37:38;;;;;;;7.72;7.05;;;;;;;20.85;59.27;97311.97;5078113;28;20206;-51
2022/05/09 10:40:07;;;;;;;6.43;6.03;;;;;;;20.70;59.14;97302.28;5073119;28;20214;-52
2022/05/09 10:42:37;;;;;;;7.05;6.53;;;;;;;20.40;61.70;97303.41;5069360;28;20203;-54
2022/05/09 10:45:10;;;;;;;6.40;5.88;;;;;;;20.37;60.75;97299.22;5070756;28;20279;-52
2022/05/09 10:47:43;;;;;;;6.63;6.13;;;;;;;20.53;61.35;97295.50;5070807;28;20206;-54
2022/05/09 10:50:15;;;;;;;6.43;5.93;;;;;;;20.60;59.38;97296.41;5077483;28;20275;-52
2022/05/09 10:52:51;;;;;;;6.07;5.68;;;;;;;20.55;58.37;97296.13;5073807;28;20195;-52
2022/05/09 10:55:22;;;;;;;6.78;6.28;;;;;;;20.42;57.30;97288.75;5057679;28;20207;-53
2022/05/09 10:57:57;;;;;;;5.97;5.57;;;;;;;20.56;58.74;97289.72;5060998;28;20211;-51
2022/05/09 11:00:27;;;;;;;6.22;5.72;;;;;;;20.48;57.89;97293.34;5060395;28;20674;-53
2022/05/09 11:03:00;;;;;;;6.30;5.90;;;;;;;20.43;60.95;97286.91;5063379;28;20614;-53
2022/05/09 11:05:32;;;;;;;7.88;7.18;;;;;;;20.45;59.72;97282.16;5053720;28;20207;-51
2022/05/09 11:08:05;;;;;;;7.28;6.68;;;;;;;20.33;59.27;97282.63;5057279;28;20214;-50
2022/05/09 11:10:39;;;;;;;6.75;6.15;;;;;;;20.43;60.18;97284.22;5044275;28;20214;-51
2022/05/09 11:13:20;;;;;;;6.50;6.05;;;;;;;20.42;60.28;97275.31;5047885;28;20188;-51
2022/05/09 11:15:54;;;;;;;7.35;6.75;;;;;;;20.47;59.38;97280.97;5056813;28;20197;-50
2022/05/09 11:18:42;;;;;;;6.72;6.13;;;;;;;20.53;60.86;97274.81;5059001;28;20196;-51
2022/05/09 11:21:17;;;;;;;6.97;6.30;;;;;;;20.62;61.60;97276.34;5070636;28;20255;-53
2022/05/09 11:23:53;;;;;;;6.28;5.78;;;;;;;21.00;59.52;97268.06;5059364;28;20198;-51
2022/05/09 11:26:25;;;;;;;7.28;6.65;;;;;;;21.11;58.33;97265.72;5054330;28;20233;-51
2022/05/09 11:29:04;;;;;;;6.10;5.70;;;;;;;21.39;58.89;97262.22;5043297;28;20192;-52
2022/05/09 11:31:38;;;;;;;6.65;6.25;;;;;;;21.23;56.56;97271.41;5059428;28;20195;-52
2022/05/09 11:34:18;;;;;;;5.82;5.40;;;;;;;21.19;57.89;97267.44;5056551;28;20546;-52
2022/05/09 11:36:59;;;;;;;5.82;5.43;;;;;;;21.27;58.84;97268.13;5071700;28;20195;-52
2022/05/09 11:39:32;;;;;;;5.80;5.38;;;;;;;21.03;57.58;97267.69;5059193;28;20191;-51
2022/05/09 11:43:27;;;;;;;6.03;5.50;;;;;;;20.87;56.19;97266.06;5059109;28;20195;-51
2022/05/09 11:45:17;;;;;;;5.47;5.07;;;;;;;20.82;57.02;97266.66;5060601;28;20214;-51
2022/05/09 11:47:51;;;;;;;8.05;5.53;;;;;;;20.90;57.12;97259.50;5052846;28;20195;-50